sensor_id;sensor_type;location;lat;lon;timestamp;temperature;humidity
2955;DHT22;1487;51.470;6.938;2023-06-26T00:00:00;24.10;99.90
2955;DHT22;1487;51.470;6.938;2023-06-26T00:02:29;24.10;99.90
2955;DHT22;1487;51.470;6.938;2023-06-26T00:04:58;24.00;99.90
2955;DHT22;1487;51.470;6.938;2023-06-26T00:07:28;24.00;99.90
2955;DHT22;1487;51.470;6.938;2023-06-26T00:09:55;23.90;99.90
2955;DHT22;1487;51.470;6.938;2023-06-26T00:12:23;23.90;99.90
2955;DHT22;1487;51.470;6.938;2023-06-26T00:14:49;23.90;99.90
2955;DHT22;1487;51.470;6.938;2023-06-26T00:17:16;23.90;99.90
2955;DHT22;1487;51.470;6.938;2023-06-26T00:19:43;23.80;99.90
2955;DHT22;1487;51.470;6.938;2023-06-26T00:22:10;23.80;99.90
2955;DHT22;1487;51.470;6.938;2023-06-26T00:24:37;23.80;99.90
2955;DHT22;1487;51.470;6.938;2023-06-26T00:27:04;23.80;99.90
2955;DHT22;1487;51.470;6.938;2023-06-26T00:29:32;23.80;99.90
2955;DHT22;1487;51.470;6.938;2023-06-26T00:31:59;23.80;99.90
2955;DHT22;1487;51.470;6.938;2023-06-26T00:34:25;23.70;99.90
2955;DHT22;1487;51.470;6.938;2023-06-26T00:36:52;23.70;99.90
2955;DHT22;1487;51.470;6.938;2023-06-26T00:39:19;23.60;99.90
2955;DHT22;1487;51.470;6.938;2023-06-26T00:41:46;23.60;99.90
2955;DHT22;1487;51.470;6.938;2023-06-26T00:44:13;23.60;99.90
2955;DHT22;1487;51.470;6.938;2023-06-26T00:46:41;23.50;99.90
2955;DHT22;1487;51.470;6.938;2023-06-26T00:49:08;23.50;99.90
2955;DHT22;1487;51.470;6.938;2023-06-26T00:51:36;23.50;99.90
2955;DHT22;1487;51.470;6.938;2023-06-26T00:54:02;23.50;99.90
2955;DHT22;1487;51.470;6.938;2023-06-26T00:56:30;23.50;99.90
2955;DHT22;1487;51.470;6.938;2023-06-26T00:58:57;23.50;99.90
2955;DHT22;1487;51.470;6.938;2023-06-26T01:01:25;23.30;99.90
2955;DHT22;1487;51.470;6.938;2023-06-26T01:03:53;23.30;99.90
2955;DHT22;1487;51.470;6.938;2023-06-26T01:06:21;23.30;99.90
2955;DHT22;1487;51.470;6.938;2023-06-26T01:08:49;23.40;99.90
2955;DHT22;1487;51.470;6.938;2023-06-26T01:11:16;23.30;99.90
2955;DHT22;1487;51.470;6.938;2023-06-26T01:13:43;23.30;99.90
2955;DHT22;1487;51.470;6.938;2023-06-26T01:16:11;23.20;99.90
2955;DHT22;1487;51.470;6.938;2023-06-26T01:18:38;23.20;99.90
2955;DHT22;1487;51.470;6.938;2023-06-26T01:21:11;23.20;99.90
2955;DHT22;1487;51.470;6.938;2023-06-26T01:23:49;23.20;99.90
2955;DHT22;1487;51.470;6.938;2023-06-26T01:26:23;23.20;99.90
2955;DHT22;1487;51.470;6.938;2023-06-26T01:28:53;23.20;99.90
2955;DHT22;1487;51.470;6.938;2023-06-26T01:31:23;23.10;99.90
2955;DHT22;1487;51.470;6.938;2023-06-26T01:33:50;23.10;99.90
2955;DHT22;1487;51.470;6.938;2023-06-26T01:36:18;23.10;99.90
2955;DHT22;1487;51.470;6.938;2023-06-26T01:38:45;23.10;99.90
2955;DHT22;1487;51.470;6.938;2023-06-26T01:41:12;23.00;99.90
2955;DHT22;1487;51.470;6.938;2023-06-26T01:43:54;23.00;99.90
2955;DHT22;1487;51.470;6.938;2023-06-26T01:46:27;23.00;99.90
2955;DHT22;1487;51.470;6.938;2023-06-26T01:48:59;23.00;99.90
2955;DHT22;1487;51.470;6.938;2023-06-26T01:51:30;22.90;99.90
2955;DHT22;1487;51.470;6.938;2023-06-26T01:53:59;22.90;99.90
2955;DHT22;1487;51.470;6.938;2023-06-26T01:56:28;22.80;99.90
2955;DHT22;1487;51.470;6.938;2023-06-26T01:58:57;22.80;99.90
2955;DHT22;1487;51.470;6.938;2023-06-26T02:01:24;22.80;99.90
2955;DHT22;1487;51.470;6.938;2023-06-26T02:03:50;22.80;99.90
2955;DHT22;1487;51.470;6.938;2023-06-26T02:06:17;22.80;99.90
2955;DHT22;1487;51.470;6.938;2023-06-26T02:08:44;22.80;99.90
2955;DHT22;1487;51.470;6.938;2023-06-26T02:11:11;22.70;99.90
2955;DHT22;1487;51.470;6.938;2023-06-26T02:13:37;22.70;99.90
2955;DHT22;1487;51.470;6.938;2023-06-26T02:16:05;22.70;99.90
2955;DHT22;1487;51.470;6.938;2023-06-26T02:18:32;22.70;99.90
2955;DHT22;1487;51.470;6.938;2023-06-26T02:20:59;22.70;99.90
2955;DHT22;1487;51.470;6.938;2023-06-26T02:23:27;22.70;99.90
2955;DHT22;1487;51.470;6.938;2023-06-26T02:25:54;22.60;99.90
2955;DHT22;1487;51.470;6.938;2023-06-26T02:28:21;22.70;99.90
2955;DHT22;1487;51.470;6.938;2023-06-26T02:30:47;22.70;99.90
2955;DHT22;1487;51.470;6.938;2023-06-26T02:33:15;22.70;99.90
2955;DHT22;1487;51.470;6.938;2023-06-26T02:35:42;22.70;99.90
2955;DHT22;1487;51.470;6.938;2023-06-26T02:38:09;22.70;99.90
2955;DHT22;1487;51.470;6.938;2023-06-26T02:40:36;22.70;99.90
2955;DHT22;1487;51.470;6.938;2023-06-26T02:43:02;22.60;99.90
2955;DHT22;1487;51.470;6.938;2023-06-26T02:45:29;22.60;99.90
2955;DHT22;1487;51.470;6.938;2023-06-26T02:47:56;22.60;99.90
2955;DHT22;1487;51.470;6.938;2023-06-26T02:50:24;22.60;99.90
2955;DHT22;1487;51.470;6.938;2023-06-26T02:52:51;22.70;99.90
2955;DHT22;1487;51.470;6.938;2023-06-26T02:55:18;22.70;99.90
2955;DHT22;1487;51.470;6.938;2023-06-26T02:57:45;22.70;99.90
2955;DHT22;1487;51.470;6.938;2023-06-26T03:00:13;22.70;99.90
2955;DHT22;1487;51.470;6.938;2023-06-26T03:02:40;22.70;99.90
2955;DHT22;1487;51.470;6.938;2023-06-26T03:05:07;22.60;99.90
2955;DHT22;1487;51.470;6.938;2023-06-26T03:07:36;22.60;99.90
2955;DHT22;1487;51.470;6.938;2023-06-26T03:10:02;22.60;99.90
2955;DHT22;1487;51.470;6.938;2023-06-26T03:12:30;22.50;99.90
2955;DHT22;1487;51.470;6.938;2023-06-26T03:14:57;22.50;99.90
2955;DHT22;1487;51.470;6.938;2023-06-26T03:17:24;22.50;99.90
2955;DHT22;1487;51.470;6.938;2023-06-26T03:19:51;22.60;99.90
2955;DHT22;1487;51.470;6.938;2023-06-26T03:22:17;22.50;99.90
2955;DHT22;1487;51.470;6.938;2023-06-26T03:24:45;22.50;99.90
2955;DHT22;1487;51.470;6.938;2023-06-26T03:27:12;22.40;99.90
2955;DHT22;1487;51.470;6.938;2023-06-26T03:29:39;22.40;99.90
2955;DHT22;1487;51.470;6.938;2023-06-26T03:32:06;22.30;99.90
2955;DHT22;1487;51.470;6.938;2023-06-26T03:34:33;22.30;99.90
2955;DHT22;1487;51.470;6.938;2023-06-26T03:37:00;22.20;99.90
2955;DHT22;1487;51.470;6.938;2023-06-26T03:39:27;22.10;99.90
2955;DHT22;1487;51.470;6.938;2023-06-26T03:41:55;22.10;99.90
2955;DHT22;1487;51.470;6.938;2023-06-26T03:44:25;22.10;99.90
2955;DHT22;1487;51.470;6.938;2023-06-26T03:46:52;22.10;99.90
2955;DHT22;1487;51.470;6.938;2023-06-26T03:49:19;22.00;99.90
2955;DHT22;1487;51.470;6.938;2023-06-26T03:51:46;22.00;99.90
2955;DHT22;1487;51.470;6.938;2023-06-26T03:54:13;21.90;99.90
2955;DHT22;1487;51.470;6.938;2023-06-26T03:56:39;21.90;99.90
2955;DHT22;1487;51.470;6.938;2023-06-26T03:59:08;21.80;99.90
2955;DHT22;1487;51.470;6.938;2023-06-26T04:01:36;21.80;99.90
2955;DHT22;1487;51.470;6.938;2023-06-26T04:04:03;21.80;99.90
2955;DHT22;1487;51.470;6.938;2023-06-26T04:06:30;21.80;99.90
2955;DHT22;1487;51.470;6.938;2023-06-26T04:08:57;21.80;99.90
2955;DHT22;1487;51.470;6.938;2023-06-26T04:11:25;21.70;99.90
2955;DHT22;1487;51.470;6.938;2023-06-26T04:13:51;21.80;99.90
2955;DHT22;1487;51.470;6.938;2023-06-26T04:16:20;21.70;99.90
2955;DHT22;1487;51.470;6.938;2023-06-26T04:18:51;21.70;99.90
2955;DHT22;1487;51.470;6.938;2023-06-26T04:21:18;21.70;99.90
2955;DHT22;1487;51.470;6.938;2023-06-26T04:23:45;21.70;99.90
2955;DHT22;1487;51.470;6.938;2023-06-26T04:26:13;21.60;99.90
2955;DHT22;1487;51.470;6.938;2023-06-26T04:28:40;21.60;99.90
2955;DHT22;1487;51.470;6.938;2023-06-26T04:31:07;21.60;99.90
2955;DHT22;1487;51.470;6.938;2023-06-26T04:33:36;21.50;99.90
2955;DHT22;1487;51.470;6.938;2023-06-26T04:36:03;21.50;99.90
2955;DHT22;1487;51.470;6.938;2023-06-26T04:38:30;21.60;99.90
2955;DHT22;1487;51.470;6.938;2023-06-26T04:40:57;21.60;99.90
2955;DHT22;1487;51.470;6.938;2023-06-26T04:43:24;21.50;99.90
2955;DHT22;1487;51.470;6.938;2023-06-26T04:45:51;21.50;99.90
2955;DHT22;1487;51.470;6.938;2023-06-26T04:48:17;21.50;99.90
2955;DHT22;1487;51.470;6.938;2023-06-26T04:50:46;21.50;99.90
2955;DHT22;1487;51.470;6.938;2023-06-26T04:53:18;21.40;99.90
2955;DHT22;1487;51.470;6.938;2023-06-26T04:55:45;21.40;99.90
2955;DHT22;1487;51.470;6.938;2023-06-26T04:58:11;21.40;99.90
2955;DHT22;1487;51.470;6.938;2023-06-26T05:00:38;21.30;99.90
2955;DHT22;1487;51.470;6.938;2023-06-26T05:03:08;21.40;99.90
2955;DHT22;1487;51.470;6.938;2023-06-26T05:05:35;21.40;99.90
2955;DHT22;1487;51.470;6.938;2023-06-26T05:08:14;21.40;99.90
2955;DHT22;1487;51.470;6.938;2023-06-26T05:10:42;21.50;99.90
2955;DHT22;1487;51.470;6.938;2023-06-26T05:13:09;21.50;99.90
2955;DHT22;1487;51.470;6.938;2023-06-26T05:15:35;21.60;99.90
2955;DHT22;1487;51.470;6.938;2023-06-26T05:18:02;21.60;99.90
2955;DHT22;1487;51.470;6.938;2023-06-26T05:20:29;21.70;99.90
2955;DHT22;1487;51.470;6.938;2023-06-26T05:22:56;21.80;99.90
2955;DHT22;1487;51.470;6.938;2023-06-26T05:25:26;21.90;99.90
2955;DHT22;1487;51.470;6.938;2023-06-26T05:27:55;22.00;99.90
2955;DHT22;1487;51.470;6.938;2023-06-26T05:30:22;22.10;99.90
2955;DHT22;1487;51.470;6.938;2023-06-26T05:32:51;22.20;99.90
2955;DHT22;1487;51.470;6.938;2023-06-26T05:35:20;22.20;99.90
2955;DHT22;1487;51.470;6.938;2023-06-26T05:37:48;22.20;99.90
2955;DHT22;1487;51.470;6.938;2023-06-26T05:40:16;22.10;99.90
2955;DHT22;1487;51.470;6.938;2023-06-26T05:42:45;22.00;99.90
2955;DHT22;1487;51.470;6.938;2023-06-26T05:45:12;21.90;99.90
2955;DHT22;1487;51.470;6.938;2023-06-26T05:47:39;21.80;99.90
2955;DHT22;1487;51.470;6.938;2023-06-26T05:50:07;21.80;99.90
2955;DHT22;1487;51.470;6.938;2023-06-26T05:52:35;21.80;99.90
2955;DHT22;1487;51.470;6.938;2023-06-26T05:55:02;21.90;99.90
2955;DHT22;1487;51.470;6.938;2023-06-26T05:57:30;22.00;99.90
2955;DHT22;1487;51.470;6.938;2023-06-26T05:59:58;22.10;99.90
2955;DHT22;1487;51.470;6.938;2023-06-26T06:02:25;22.20;99.90
2955;DHT22;1487;51.470;6.938;2023-06-26T06:04:52;22.20;99.90
2955;DHT22;1487;51.470;6.938;2023-06-26T06:07:19;22.10;99.90
2955;DHT22;1487;51.470;6.938;2023-06-26T06:09:45;22.10;99.90
2955;DHT22;1487;51.470;6.938;2023-06-26T06:12:12;22.00;99.90
2955;DHT22;1487;51.470;6.938;2023-06-26T06:14:39;21.90;99.90
2955;DHT22;1487;51.470;6.938;2023-06-26T06:17:07;21.80;99.90
2955;DHT22;1487;51.470;6.938;2023-06-26T06:19:34;21.80;99.90
2955;DHT22;1487;51.470;6.938;2023-06-26T06:22:01;21.90;99.90
2955;DHT22;1487;51.470;6.938;2023-06-26T06:24:27;22.00;99.90
2955;DHT22;1487;51.470;6.938;2023-06-26T06:26:54;22.00;99.90
2955;DHT22;1487;51.470;6.938;2023-06-26T06:29:21;21.90;99.90
2955;DHT22;1487;51.470;6.938;2023-06-26T06:31:48;21.70;99.90
2955;DHT22;1487;51.470;6.938;2023-06-26T06:34:16;21.60;99.90
2955;DHT22;1487;51.470;6.938;2023-06-26T06:36:43;21.30;99.90
2955;DHT22;1487;51.470;6.938;2023-06-26T06:39:09;21.30;99.90
2955;DHT22;1487;51.470;6.938;2023-06-26T06:41:36;21.40;99.90
2955;DHT22;1487;51.470;6.938;2023-06-26T06:44:03;21.60;99.90
2955;DHT22;1487;51.470;6.938;2023-06-26T06:46:30;22.00;99.90
2955;DHT22;1487;51.470;6.938;2023-06-26T06:48:57;22.60;99.90
2955;DHT22;1487;51.470;6.938;2023-06-26T06:51:26;22.90;99.90
2955;DHT22;1487;51.470;6.938;2023-06-26T06:53:53;23.20;99.90
2955;DHT22;1487;51.470;6.938;2023-06-26T06:56:19;23.70;99.90
2955;DHT22;1487;51.470;6.938;2023-06-26T06:58:46;24.30;99.90
2955;DHT22;1487;51.470;6.938;2023-06-26T07:01:13;24.40;99.90
2955;DHT22;1487;51.470;6.938;2023-06-26T07:03:40;24.70;99.90
2955;DHT22;1487;51.470;6.938;2023-06-26T07:06:07;24.90;99.90
2955;DHT22;1487;51.470;6.938;2023-06-26T07:08:35;25.00;99.90
2955;DHT22;1487;51.470;6.938;2023-06-26T07:11:02;25.00;99.90
2955;DHT22;1487;51.470;6.938;2023-06-26T07:13:28;25.10;99.90
2955;DHT22;1487;51.470;6.938;2023-06-26T07:15:55;25.30;99.90
2955;DHT22;1487;51.470;6.938;2023-06-26T07:18:22;25.50;99.90
2955;DHT22;1487;51.470;6.938;2023-06-26T07:20:49;26.00;99.90
2955;DHT22;1487;51.470;6.938;2023-06-26T07:23:15;26.40;99.90
2955;DHT22;1487;51.470;6.938;2023-06-26T07:25:43;26.30;99.90
2955;DHT22;1487;51.470;6.938;2023-06-26T07:28:11;26.10;99.90
2955;DHT22;1487;51.470;6.938;2023-06-26T07:30:38;25.80;99.90
2955;DHT22;1487;51.470;6.938;2023-06-26T07:33:05;25.40;99.90
2955;DHT22;1487;51.470;6.938;2023-06-26T07:35:32;25.10;99.90
2955;DHT22;1487;51.470;6.938;2023-06-26T07:37:59;25.30;99.90
2955;DHT22;1487;51.470;6.938;2023-06-26T07:40:26;25.90;99.90
2955;DHT22;1487;51.470;6.938;2023-06-26T07:42:54;26.30;99.90
2955;DHT22;1487;51.470;6.938;2023-06-26T07:45:23;26.50;99.90
2955;DHT22;1487;51.470;6.938;2023-06-26T07:47:49;26.80;99.90
2955;DHT22;1487;51.470;6.938;2023-06-26T07:50:16;27.40;99.90
2955;DHT22;1487;51.470;6.938;2023-06-26T07:52:47;27.40;99.90
2955;DHT22;1487;51.470;6.938;2023-06-26T07:55:14;27.60;99.90
2955;DHT22;1487;51.470;6.938;2023-06-26T07:57:41;28.30;99.90
2955;DHT22;1487;51.470;6.938;2023-06-26T08:00:10;27.80;99.90
2955;DHT22;1487;51.470;6.938;2023-06-26T08:02:37;27.90;99.90
2955;DHT22;1487;51.470;6.938;2023-06-26T08:05:04;28.10;99.90
2955;DHT22;1487;51.470;6.938;2023-06-26T08:07:31;28.10;99.90
2955;DHT22;1487;51.470;6.938;2023-06-26T08:09:58;28.10;99.90
2955;DHT22;1487;51.470;6.938;2023-06-26T08:12:25;28.30;99.90
2955;DHT22;1487;51.470;6.938;2023-06-26T08:14:51;28.30;99.90
2955;DHT22;1487;51.470;6.938;2023-06-26T08:17:19;28.00;99.90
2955;DHT22;1487;51.470;6.938;2023-06-26T08:19:46;27.50;99.90
2955;DHT22;1487;51.470;6.938;2023-06-26T08:22:13;27.60;99.90
2955;DHT22;1487;51.470;6.938;2023-06-26T08:24:40;27.00;99.90
2955;DHT22;1487;51.470;6.938;2023-06-26T08:27:07;26.30;99.90
2955;DHT22;1487;51.470;6.938;2023-06-26T08:29:33;25.80;99.90
2955;DHT22;1487;51.470;6.938;2023-06-26T08:32:00;25.00;99.90
2955;DHT22;1487;51.470;6.938;2023-06-26T08:34:29;24.70;99.90
2955;DHT22;1487;51.470;6.938;2023-06-26T08:36:56;25.00;99.90
2955;DHT22;1487;51.470;6.938;2023-06-26T08:39:23;25.50;99.90
2955;DHT22;1487;51.470;6.938;2023-06-26T08:41:50;25.70;99.90
2955;DHT22;1487;51.470;6.938;2023-06-26T08:44:17;25.50;99.90
2955;DHT22;1487;51.470;6.938;2023-06-26T08:46:44;25.30;99.90
2955;DHT22;1487;51.470;6.938;2023-06-26T08:49:21;25.20;99.90
2955;DHT22;1487;51.470;6.938;2023-06-26T08:51:52;25.80;99.90
2955;DHT22;1487;51.470;6.938;2023-06-26T08:54:27;26.70;99.90
2955;DHT22;1487;51.470;6.938;2023-06-26T08:56:55;26.80;99.90
2955;DHT22;1487;51.470;6.938;2023-06-26T08:59:22;26.80;99.90
2955;DHT22;1487;51.470;6.938;2023-06-26T09:01:50;26.90;99.90
2955;DHT22;1487;51.470;6.938;2023-06-26T09:04:17;26.60;99.90
2955;DHT22;1487;51.470;6.938;2023-06-26T09:06:44;27.00;99.90
2955;DHT22;1487;51.470;6.938;2023-06-26T09:09:12;27.40;99.90
2955;DHT22;1487;51.470;6.938;2023-06-26T09:11:39;28.20;99.90
2955;DHT22;1487;51.470;6.938;2023-06-26T09:14:07;28.50;99.90
2955;DHT22;1487;51.470;6.938;2023-06-26T09:16:39;27.90;99.90
2955;DHT22;1487;51.470;6.938;2023-06-26T09:19:09;27.20;99.90
2955;DHT22;1487;51.470;6.938;2023-06-26T09:21:38;26.90;99.90
2955;DHT22;1487;51.470;6.938;2023-06-26T09:24:06;27.20;99.90
2955;DHT22;1487;51.470;6.938;2023-06-26T09:26:35;27.90;99.90
2955;DHT22;1487;51.470;6.938;2023-06-26T09:29:03;28.10;99.90
2955;DHT22;1487;51.470;6.938;2023-06-26T09:31:30;29.00;99.90
2955;DHT22;1487;51.470;6.938;2023-06-26T09:33:59;29.00;97.20
2955;DHT22;1487;51.470;6.938;2023-06-26T09:36:29;28.50;98.90
2955;DHT22;1487;51.470;6.938;2023-06-26T09:38:59;27.90;99.60
2955;DHT22;1487;51.470;6.938;2023-06-26T09:41:25;27.40;99.90
2955;DHT22;1487;51.470;6.938;2023-06-26T09:43:54;27.80;99.90
2955;DHT22;1487;51.470;6.938;2023-06-26T09:46:27;27.90;99.90
2955;DHT22;1487;51.470;6.938;2023-06-26T09:48:59;27.60;99.90
2955;DHT22;1487;51.470;6.938;2023-06-26T09:51:26;27.10;99.90
2955;DHT22;1487;51.470;6.938;2023-06-26T09:53:53;27.40;99.90
2955;DHT22;1487;51.470;6.938;2023-06-26T09:56:20;28.10;99.90
2955;DHT22;1487;51.470;6.938;2023-06-26T09:58:47;28.80;99.90
2955;DHT22;1487;51.470;6.938;2023-06-26T10:01:17;29.10;90.50
2955;DHT22;1487;51.470;6.938;2023-06-26T10:03:44;29.30;89.50
2955;DHT22;1487;51.470;6.938;2023-06-26T10:06:11;29.20;87.60
2955;DHT22;1487;51.470;6.938;2023-06-26T10:08:39;29.20;84.70
2955;DHT22;1487;51.470;6.938;2023-06-26T10:11:11;29.20;86.20
2955;DHT22;1487;51.470;6.938;2023-06-26T10:13:41;28.70;85.90
2955;DHT22;1487;51.470;6.938;2023-06-26T10:16:11;28.60;91.20
2955;DHT22;1487;51.470;6.938;2023-06-26T10:18:40;28.40;90.40
2955;DHT22;1487;51.470;6.938;2023-06-26T10:21:08;28.20;89.30
2955;DHT22;1487;51.470;6.938;2023-06-26T10:23:36;28.00;90.60
2955;DHT22;1487;51.470;6.938;2023-06-26T10:26:07;27.90;91.00
2955;DHT22;1487;51.470;6.938;2023-06-26T10:28:35;28.80;89.50
2955;DHT22;1487;51.470;6.938;2023-06-26T10:31:04;29.50;86.80
2955;DHT22;1487;51.470;6.938;2023-06-26T10:33:32;29.60;88.30
2955;DHT22;1487;51.470;6.938;2023-06-26T10:36:15;29.40;84.50
2955;DHT22;1487;51.470;6.938;2023-06-26T10:38:51;29.80;83.90
2955;DHT22;1487;51.470;6.938;2023-06-26T10:41:20;30.20;82.30
2955;DHT22;1487;51.470;6.938;2023-06-26T10:43:50;31.50;80.00
2955;DHT22;1487;51.470;6.938;2023-06-26T10:46:18;31.20;76.50
2955;DHT22;1487;51.470;6.938;2023-06-26T10:48:58;30.20;79.90
2955;DHT22;1487;51.470;6.938;2023-06-26T10:51:27;29.10;76.40
2955;DHT22;1487;51.470;6.938;2023-06-26T10:53:55;28.80;78.70
2955;DHT22;1487;51.470;6.938;2023-06-26T10:56:41;29.40;80.90
2955;DHT22;1487;51.470;6.938;2023-06-26T10:59:13;30.60;82.40
2955;DHT22;1487;51.470;6.938;2023-06-26T11:01:42;30.80;75.80
2955;DHT22;1487;51.470;6.938;2023-06-26T11:04:09;30.40;77.60
2955;DHT22;1487;51.470;6.938;2023-06-26T11:06:38;30.70;77.70
2955;DHT22;1487;51.470;6.938;2023-06-26T11:09:10;31.20;75.20
2955;DHT22;1487;51.470;6.938;2023-06-26T11:11:57;31.40;70.90
2955;DHT22;1487;51.470;6.938;2023-06-26T11:14:27;31.60;68.80
2955;DHT22;1487;51.470;6.938;2023-06-26T11:16:55;30.80;67.60
2955;DHT22;1487;51.470;6.938;2023-06-26T11:19:25;30.00;69.50
2955;DHT22;1487;51.470;6.938;2023-06-26T11:21:58;29.20;70.90
2955;DHT22;1487;51.470;6.938;2023-06-26T11:24:25;29.40;72.90
2955;DHT22;1487;51.470;6.938;2023-06-26T11:26:52;29.10;69.40
2955;DHT22;1487;51.470;6.938;2023-06-26T11:29:19;29.10;72.30
2955;DHT22;1487;51.470;6.938;2023-06-26T11:31:46;29.20;70.60
2955;DHT22;1487;51.470;6.938;2023-06-26T11:34:13;29.80;76.80
2955;DHT22;1487;51.470;6.938;2023-06-26T11:36:42;30.60;67.80
2955;DHT22;1487;51.470;6.938;2023-06-26T11:39:13;30.60;69.00
2955;DHT22;1487;51.470;6.938;2023-06-26T11:41:41;30.40;67.10
2955;DHT22;1487;51.470;6.938;2023-06-26T11:44:09;29.90;68.80
2955;DHT22;1487;51.470;6.938;2023-06-26T11:46:36;29.20;68.70
2955;DHT22;1487;51.470;6.938;2023-06-26T11:49:03;29.50;66.90
2955;DHT22;1487;51.470;6.938;2023-06-26T11:51:30;30.00;69.00
2955;DHT22;1487;51.470;6.938;2023-06-26T11:54:00;30.10;67.20
2955;DHT22;1487;51.470;6.938;2023-06-26T11:56:29;30.20;64.90
2955;DHT22;1487;51.470;6.938;2023-06-26T11:58:57;30.30;64.80
2955;DHT22;1487;51.470;6.938;2023-06-26T12:01:25;30.00;63.50
2955;DHT22;1487;51.470;6.938;2023-06-26T12:03:58;30.30;60.70
2955;DHT22;1487;51.470;6.938;2023-06-26T12:06:26;30.70;65.40
2955;DHT22;1487;51.470;6.938;2023-06-26T12:08:53;30.60;61.10
2955;DHT22;1487;51.470;6.938;2023-06-26T12:11:20;29.90;62.20
2955;DHT22;1487;51.470;6.938;2023-06-26T12:13:50;29.30;62.40
2955;DHT22;1487;51.470;6.938;2023-06-26T12:16:17;29.70;65.10
2955;DHT22;1487;51.470;6.938;2023-06-26T12:18:45;29.90;63.50
2955;DHT22;1487;51.470;6.938;2023-06-26T12:21:34;30.50;64.90
2955;DHT22;1487;51.470;6.938;2023-06-26T12:24:16;31.10;63.70
2955;DHT22;1487;51.470;6.938;2023-06-26T12:26:44;30.80;57.00
2955;DHT22;1487;51.470;6.938;2023-06-26T12:29:13;31.00;56.20
2955;DHT22;1487;51.470;6.938;2023-06-26T12:31:40;31.10;56.70
2955;DHT22;1487;51.470;6.938;2023-06-26T12:34:12;31.20;57.70
2955;DHT22;1487;51.470;6.938;2023-06-26T12:36:43;30.10;56.30
2955;DHT22;1487;51.470;6.938;2023-06-26T12:39:10;29.50;58.20
2955;DHT22;1487;51.470;6.938;2023-06-26T12:41:48;29.20;60.00
2955;DHT22;1487;51.470;6.938;2023-06-26T12:44:20;29.50;58.40
2955;DHT22;1487;51.470;6.938;2023-06-26T12:46:49;30.00;60.20
2955;DHT22;1487;51.470;6.938;2023-06-26T12:49:16;30.00;57.10
2955;DHT22;1487;51.470;6.938;2023-06-26T12:51:45;30.40;56.90
2955;DHT22;1487;51.470;6.938;2023-06-26T12:54:12;31.30;61.50
2955;DHT22;1487;51.470;6.938;2023-06-26T12:56:39;30.90;57.00
2955;DHT22;1487;51.470;6.938;2023-06-26T12:59:05;30.60;59.80
2955;DHT22;1487;51.470;6.938;2023-06-26T13:01:33;30.30;57.10
2955;DHT22;1487;51.470;6.938;2023-06-26T13:04:00;30.40;58.50
2955;DHT22;1487;51.470;6.938;2023-06-26T13:06:27;30.20;57.40
2955;DHT22;1487;51.470;6.938;2023-06-26T13:08:54;29.70;58.20
2955;DHT22;1487;51.470;6.938;2023-06-26T13:11:20;29.10;58.40
2955;DHT22;1487;51.470;6.938;2023-06-26T13:13:48;28.50;58.70
2955;DHT22;1487;51.470;6.938;2023-06-26T13:16:14;28.70;59.30
2955;DHT22;1487;51.470;6.938;2023-06-26T13:18:43;28.40;59.30
2955;DHT22;1487;51.470;6.938;2023-06-26T13:21:09;28.20;59.40
2955;DHT22;1487;51.470;6.938;2023-06-26T13:23:36;28.20;59.20
2955;DHT22;1487;51.470;6.938;2023-06-26T13:26:04;28.10;59.60
2955;DHT22;1487;51.470;6.938;2023-06-26T13:28:31;27.90;58.90
2955;DHT22;1487;51.470;6.938;2023-06-26T13:30:57;27.60;59.10
2955;DHT22;1487;51.470;6.938;2023-06-26T13:33:24;27.20;60.40
2955;DHT22;1487;51.470;6.938;2023-06-26T13:35:52;27.30;60.40
2955;DHT22;1487;51.470;6.938;2023-06-26T13:38:20;27.50;60.70
2955;DHT22;1487;51.470;6.938;2023-06-26T13:40:50;27.90;63.90
2955;DHT22;1487;51.470;6.938;2023-06-26T13:43:17;28.80;61.80
2955;DHT22;1487;51.470;6.938;2023-06-26T13:45:43;29.20;57.90
2955;DHT22;1487;51.470;6.938;2023-06-26T13:48:10;29.60;57.30
2955;DHT22;1487;51.470;6.938;2023-06-26T13:50:37;30.00;56.20
2955;DHT22;1487;51.470;6.938;2023-06-26T13:53:06;30.20;57.40
2955;DHT22;1487;51.470;6.938;2023-06-26T13:55:34;30.40;57.30
2955;DHT22;1487;51.470;6.938;2023-06-26T13:58:01;29.90;55.40
2955;DHT22;1487;51.470;6.938;2023-06-26T14:00:29;28.70;56.00
2955;DHT22;1487;51.470;6.938;2023-06-26T14:02:56;28.50;56.50
2955;DHT22;1487;51.470;6.938;2023-06-26T14:05:23;28.20;58.00
2955;DHT22;1487;51.470;6.938;2023-06-26T14:07:49;27.90;57.20
2955;DHT22;1487;51.470;6.938;2023-06-26T14:10:18;28.20;55.50
2955;DHT22;1487;51.470;6.938;2023-06-26T14:12:45;28.70;55.50
2955;DHT22;1487;51.470;6.938;2023-06-26T14:15:12;28.80;54.60
2955;DHT22;1487;51.470;6.938;2023-06-26T14:17:38;29.20;54.30
2955;DHT22;1487;51.470;6.938;2023-06-26T14:20:07;29.90;54.80
2955;DHT22;1487;51.470;6.938;2023-06-26T14:22:35;30.40;54.00
2955;DHT22;1487;51.470;6.938;2023-06-26T14:25:03;30.70;53.50
2955;DHT22;1487;51.470;6.938;2023-06-26T14:27:31;30.80;54.30
2955;DHT22;1487;51.470;6.938;2023-06-26T14:29:58;30.80;53.50
2955;DHT22;1487;51.470;6.938;2023-06-26T14:32:25;30.80;56.00
2955;DHT22;1487;51.470;6.938;2023-06-26T14:34:51;30.60;57.40
2955;DHT22;1487;51.470;6.938;2023-06-26T14:37:18;29.60;55.50
2955;DHT22;1487;51.470;6.938;2023-06-26T14:39:51;28.70;57.40
2955;DHT22;1487;51.470;6.938;2023-06-26T14:42:17;28.10;60.40
2955;DHT22;1487;51.470;6.938;2023-06-26T14:44:46;27.30;57.90
2955;DHT22;1487;51.470;6.938;2023-06-26T14:47:15;26.80;57.00
2955;DHT22;1487;51.470;6.938;2023-06-26T14:49:42;26.40;55.60
2955;DHT22;1487;51.470;6.938;2023-06-26T14:52:09;26.30;57.60
2955;DHT22;1487;51.470;6.938;2023-06-26T14:54:36;26.20;59.30
2955;DHT22;1487;51.470;6.938;2023-06-26T14:57:03;26.00;58.40
2955;DHT22;1487;51.470;6.938;2023-06-26T14:59:30;25.80;57.70
2955;DHT22;1487;51.470;6.938;2023-06-26T15:01:58;25.70;58.50
2955;DHT22;1487;51.470;6.938;2023-06-26T15:04:24;25.70;57.30
2955;DHT22;1487;51.470;6.938;2023-06-26T15:06:52;25.80;58.40
2955;DHT22;1487;51.470;6.938;2023-06-26T15:09:19;26.00;58.80
2955;DHT22;1487;51.470;6.938;2023-06-26T15:11:46;26.40;59.10
2955;DHT22;1487;51.470;6.938;2023-06-26T15:14:13;26.50;60.00
2955;DHT22;1487;51.470;6.938;2023-06-26T15:16:39;26.30;60.90
2955;DHT22;1487;51.470;6.938;2023-06-26T15:19:07;26.10;64.00
2955;DHT22;1487;51.470;6.938;2023-06-26T15:21:35;26.00;64.40
2955;DHT22;1487;51.470;6.938;2023-06-26T15:24:01;25.90;64.80
2955;DHT22;1487;51.470;6.938;2023-06-26T15:26:28;25.90;65.20
2955;DHT22;1487;51.470;6.938;2023-06-26T15:28:55;25.70;64.00
2955;DHT22;1487;51.470;6.938;2023-06-26T15:31:22;26.00;65.50
2955;DHT22;1487;51.470;6.938;2023-06-26T15:33:48;26.20;63.60
2955;DHT22;1487;51.470;6.938;2023-06-26T15:36:17;26.40;62.10
2955;DHT22;1487;51.470;6.938;2023-06-26T15:38:44;26.00;62.90
2955;DHT22;1487;51.470;6.938;2023-06-26T15:41:11;25.90;61.40
2955;DHT22;1487;51.470;6.938;2023-06-26T15:43:38;25.80;62.80
2955;DHT22;1487;51.470;6.938;2023-06-26T15:46:06;25.60;64.00
2955;DHT22;1487;51.470;6.938;2023-06-26T15:48:34;25.20;64.60
2955;DHT22;1487;51.470;6.938;2023-06-26T15:51:01;24.70;65.10
2955;DHT22;1487;51.470;6.938;2023-06-26T15:53:35;24.50;66.90
2955;DHT22;1487;51.470;6.938;2023-06-26T15:56:05;24.40;67.70
2955;DHT22;1487;51.470;6.938;2023-06-26T15:58:32;24.20;67.80
2955;DHT22;1487;51.470;6.938;2023-06-26T16:01:00;24.00;67.90
2955;DHT22;1487;51.470;6.938;2023-06-26T16:03:26;23.90;67.60
2955;DHT22;1487;51.470;6.938;2023-06-26T16:05:53;23.70;67.30